createdAt,value
2019-04-22T00:03:52.182Z,28.50
2019-04-22T00:09:13.805Z,28.13
2019-04-22T00:14:11.856Z,22.83
2019-04-22T00:19:22.686Z,24.80
2019-04-22T00:24:27.568Z,23.80
2019-04-22T00:29:50.163Z,24.77
2019-04-22T00:34:37.162Z,27.37
2019-04-22T00:39:42.629Z,29.33
2019-04-22T00:44:47.046Z,25.23
2019-04-22T00:55:06.034Z,28.40
2019-04-22T01:00:05.542Z,30.00
2019-04-22T01:05:09.780Z,36.13
2019-04-22T01:10:13.036Z,31.17
2019-04-22T01:15:19.189Z,33.87
2019-04-22T01:20:29.456Z,32.33
2019-04-22T01:25:21.690Z,33.57
2019-04-22T01:30:22.159Z,39.47
2019-04-22T01:35:25.460Z,36.20
2019-04-22T01:40:45.521Z,36.03
2019-04-22T01:45:45.109Z,35.10
2019-04-22T01:50:50.082Z,33.47
2019-04-22T01:55:59.037Z,39.77
2019-04-22T02:06:44.366Z,37.20
2019-04-22T02:11:54.460Z,40.13
2019-04-22T02:16:56.233Z,39.60
2019-04-22T02:21:56.537Z,38.93
2019-04-22T02:26:54.553Z,39.30
2019-04-22T02:32:13.366Z,39.50
2019-04-22T02:37:13.368Z,41.47
2019-04-22T02:47:20.907Z,38.33
2019-04-22T02:52:34.845Z,39.67
2019-04-22T03:07:40.943Z,43.27
2019-04-22T03:12:41.821Z,41.50
2019-04-22T03:17:51.726Z,42.70
2019-04-22T03:23:00.295Z,47.77
2019-04-22T03:28:14.433Z,45.47
2019-04-22T03:33:10.989Z,46.60
2019-04-22T03:38:28.916Z,48.70
2019-04-22T03:48:17.701Z,45.20
2019-04-22T03:53:21.245Z,53.67
2019-04-22T03:58:25.395Z,53.70
2019-04-22T04:03:28.370Z,51.83
2019-04-22T04:08:33.375Z,50.23
2019-04-22T04:13:39.486Z,58.33
2019-04-22T04:18:57.817Z,49.97
2019-04-22T04:24:22.467Z,54.27
2019-04-22T04:29:05.070Z,54.73
2019-04-22T04:34:03.669Z,53.77
2019-04-22T04:39:10.915Z,62.63
2019-04-22T04:44:34.244Z,53.90
2019-04-22T04:49:19.145Z,62.63
2019-04-22T04:54:31.701Z,61.20
2019-04-22T04:59:41.829Z,57.63
2019-04-22T05:04:51.150Z,59.47
2019-04-22T05:14:41.574Z,64.60
2019-04-22T05:24:43.285Z,65.03
2019-04-22T05:34:52.814Z,65.87
2019-04-22T05:40:06.581Z,71.10
2019-04-22T05:45:05.244Z,67.47
2019-04-22T05:50:03.582Z,71.13
2019-04-22T05:55:22.683Z,65.40
2019-04-22T06:00:14.588Z,64.93
2019-04-22T06:05:17.367Z,67.33
2019-04-22T06:10:29.595Z,62.47
2019-04-22T06:15:29.070Z,65.90
2019-04-22T06:20:36.951Z,71.37
2019-04-22T06:25:58.493Z,54.80
2019-04-22T06:30:53.880Z,54.37
2019-04-22T06:35:48.671Z,56.47
2019-04-22T06:40:56.760Z,62.50
2019-04-22T06:46:11.413Z,57.77
2019-04-22T06:51:09.461Z,58.33
2019-04-22T06:56:12.481Z,57.03
2019-04-22T07:06:26.561Z,50.73
2019-04-22T07:11:18.848Z,48.77
2019-04-22T07:16:38.147Z,48.63
2019-04-22T07:21:44.199Z,45.90
2019-04-22T07:26:51.260Z,38.53
2019-04-22T07:31:56.273Z,48.33
2019-04-22T07:37:12.513Z,38.03
2019-04-22T07:41:56.127Z,34.97
2019-04-22T07:47:15.254Z,35.53
2019-04-22T07:52:09.520Z,37.23
2019-04-22T07:57:22.744Z,35.73
2019-04-22T08:02:16.287Z,34.13
2019-04-22T08:07:24.182Z,31.93
2019-04-22T08:12:28.143Z,28.13
2019-04-22T08:17:52.071Z,28.47
2019-04-22T08:22:39.469Z,27.00
2019-04-22T08:27:35.594Z,29.23
2019-04-22T08:37:50.956Z,33.90
2019-04-22T08:43:02.166Z,31.17
2019-04-22T08:47:54.853Z,36.37
2019-04-22T08:53:02.052Z,24.07
2019-04-22T09:03:10.346Z,28.83
2019-04-22T09:08:14.264Z,26.37
2019-04-22T09:13:13.925Z,26.47
2019-04-22T09:18:25.129Z,25.93
2019-04-22T09:28:33.199Z,23.07
2019-04-22T09:33:32.102Z,27.60
2019-04-22T09:43:49.032Z,31.60
2019-04-22T09:48:50.326Z,27.87
2019-04-22T09:54:02.403Z,27.97
2019-04-22T09:58:59.003Z,26.80
2019-04-22T10:04:00.631Z,27.77
2019-04-22T10:09:29.869Z,30.80
2019-04-22T10:14:12.493Z,26.43
2019-04-22T10:19:18.664Z,27.40
2019-04-22T10:24:36.931Z,22.80
2019-04-22T10:29:38.598Z,22.03
2019-04-22T10:34:16.892Z,17.60
2019-04-22T10:39:12.677Z,19.30
2019-04-22T10:44:15.340Z,17.90
2019-04-22T10:49:18.198Z,14.80
2019-04-22T10:54:20.865Z,13.80
2019-04-22T10:59:24.702Z,14.13
2019-04-22T11:04:28.507Z,15.73
2019-04-22T11:09:31.060Z,13.93
2019-04-22T11:14:34.726Z,12.53
2019-04-22T11:19:37.351Z,17.03
2019-04-22T11:24:41.059Z,15.27
2019-04-22T11:29:43.849Z,13.40
2019-04-22T11:34:51.124Z,16.00
2019-04-22T11:40:04.611Z,14.33
2019-04-22T11:44:59.348Z,14.53
2019-04-22T11:50:02.080Z,15.97
2019-04-22T11:55:06.477Z,10.53
2019-04-22T12:00:10.261Z,14.63
2019-04-22T12:05:14.234Z,20.73
2019-04-22T12:10:28.535Z,14.63
2019-04-22T12:15:22.662Z,14.00
2019-04-22T12:20:29.337Z,14.40
2019-04-22T12:25:46.433Z,13.80
2019-04-22T12:30:39.436Z,13.73
2019-04-22T12:35:42.326Z,12.73
2019-04-22T12:40:52.265Z,11.93
2019-04-22T12:45:50.138Z,16.90
2019-04-22T12:50:56.453Z,14.10
2019-04-22T12:55:59.451Z,14.80
2019-04-22T13:01:04.988Z,17.83
2019-04-22T13:06:09.870Z,17.17
2019-04-22T13:11:19.468Z,17.83
2019-04-22T13:16:20.683Z,12.17
2019-04-22T13:21:22.889Z,14.27
2019-04-22T13:26:25.451Z,14.60
2019-04-22T13:31:29.036Z,13.83
2019-04-22T13:36:31.814Z,19.10
2019-04-22T13:41:44.006Z,16.63
2019-04-22T13:46:41.113Z,17.23
2019-04-22T13:57:10.282Z,14.10
2019-04-22T14:02:16.906Z,17.07
2019-04-22T14:07:19.123Z,15.97
2019-04-22T14:12:21.766Z,15.90
2019-04-22T14:17:25.229Z,16.23
2019-04-22T14:22:28.343Z,13.00
2019-04-22T14:27:44.333Z,14.27
2019-04-22T14:32:37.952Z,19.23
2019-04-22T14:37:43.186Z,13.80
2019-04-22T14:43:07.135Z,10.80
2019-04-22T14:48:19.997Z,12.53
2019-04-22T14:53:19.415Z,10.80
2019-04-22T14:58:01.182Z,11.90
2019-04-22T15:03:03.918Z,13.07
2019-04-22T15:08:08.855Z,15.07
2019-04-22T15:13:11.657Z,9.70
2019-04-22T15:18:44.059Z,14.23
2019-04-22T15:23:46.717Z,14.13
2019-04-22T15:28:53.430Z,15.93
2019-04-22T15:33:58.454Z,10.63
2019-04-22T15:39:05.106Z,18.07
2019-04-22T15:44:08.008Z,15.70
2019-04-22T15:49:11.786Z,14.50
2019-04-22T15:54:16.473Z,13.37
2019-04-22T15:59:40.695Z,9.37
2019-04-22T16:04:26.306Z,11.23
2019-04-22T16:09:31.405Z,12.83
2019-04-22T16:14:41.210Z,14.17
2019-04-22T16:19:39.066Z,11.77
2019-04-22T16:24:58.277Z,10.20
2019-04-22T16:30:03.661Z,11.57
2019-04-22T16:35:08.713Z,12.83
2019-04-22T16:40:12.427Z,7.57
2019-04-22T16:45:15.725Z,9.50
2019-04-22T16:50:20.928Z,13.53
2019-04-22T16:55:23.555Z,8.20
2019-04-22T17:00:26.939Z,13.10
2019-04-22T17:05:59.250Z,9.47
2019-04-22T17:11:04.026Z,16.80
2019-04-22T17:16:07.073Z,9.80
2019-04-22T17:21:10.621Z,7.70
2019-04-22T17:26:14.589Z,14.07
2019-04-22T17:31:16.836Z,16.10
2019-04-22T17:36:20.283Z,9.90
2019-04-22T17:41:38.627Z,9.23
2019-04-22T17:46:51.074Z,8.00
2019-04-22T17:52:21.216Z,6.53
2019-04-22T17:57:21.607Z,6.43
2019-04-22T18:02:25.177Z,6.60
2019-04-22T18:07:35.814Z,8.57
2019-04-22T18:17:43.051Z,9.03
2019-04-22T18:22:37.256Z,12.47
2019-04-22T18:27:55.271Z,6.30
2019-04-22T18:32:52.185Z,10.47
2019-04-22T18:37:53.744Z,8.50
2019-04-22T18:43:06.228Z,7.00
2019-04-22T18:48:00.953Z,5.93
2019-04-22T18:53:23.329Z,8.90
2019-04-22T18:58:16.304Z,5.37
2019-04-22T19:03:15.622Z,9.13
2019-04-22T19:08:31.544Z,4.43
2019-04-22T19:18:45.970Z,6.63
2019-04-22T19:23:49.155Z,5.63
2019-04-22T19:29:00.738Z,5.57
2019-04-22T19:34:06.211Z,7.63
2019-04-22T19:39:06.965Z,13.70
2019-04-22T19:44:17.748Z,4.23
2019-04-22T19:49:23.766Z,10.07
2019-04-22T19:54:17.401Z,11.63
2019-04-22T19:59:25.368Z,5.40
2019-04-22T20:05:02.778Z,7.43
2019-04-22T20:10:00.129Z,9.33
2019-04-22T20:15:00.402Z,10.30
2019-04-22T20:20:09.683Z,11.10
2019-04-22T20:24:56.430Z,11.83
2019-04-22T20:30:13.999Z,7.87
2019-04-22T20:35:21.599Z,12.43
2019-04-22T20:40:29.787Z,12.30
2019-04-22T20:45:34.795Z,8.57
2019-04-22T20:50:36.386Z,12.10
2019-04-22T20:55:42.041Z,9.00
2019-04-22T21:00:38.917Z,8.87
2019-04-22T21:05:47.145Z,10.97
2019-04-22T21:10:52.094Z,14.40
2019-04-22T21:16:11.650Z,9.27
2019-04-22T21:21:07.180Z,9.40
2019-04-22T21:26:13.828Z,8.23
2019-04-22T21:31:23.724Z,5.60
2019-04-22T21:41:24.910Z,8.23
2019-04-22T21:46:33.513Z,8.13
2019-04-22T21:51:39.928Z,9.73
2019-04-22T21:57:09.128Z,9.43
2019-04-22T22:02:16.198Z,8.13
2019-04-22T22:06:57.768Z,6.20
2019-04-22T22:12:10.380Z,8.30
2019-04-22T22:17:20.642Z,5.80
2019-04-22T22:22:42.243Z,8.13
2019-04-22T22:27:34.254Z,5.87
2019-04-22T22:32:33.767Z,7.13
2019-04-22T22:37:28.321Z,4.63
2019-04-22T22:42:30.156Z,9.03
2019-04-22T22:47:45.672Z,6.90
2019-04-22T22:52:58.972Z,10.50
2019-04-22T22:57:58.374Z,9.30
2019-04-22T23:03:24.605Z,9.83
2019-04-22T23:08:15.633Z,9.40
2019-04-22T23:13:20.460Z,5.50
2019-04-22T23:17:51.879Z,5.23
2019-04-22T23:23:17.243Z,6.27
2019-04-22T23:28:29.832Z,7.93
2019-04-22T23:33:42.726Z,9.67
2019-04-22T23:38:51.892Z,5.53
2019-04-22T23:43:55.671Z,9.47
2019-04-22T23:48:51.938Z,4.30
2019-04-22T23:54:18.677Z,5.40
2019-04-22T23:59:10.292Z,17.20
